Time;durP1;ratioP1;P1;durP2;ratioP2;P2;SDS_P1;SDS_P2;PMS_P1;PMS_P2;Temp;Humidity;BMP_temperature;BMP_pressure;BME280_temperature;BME280_humidity;BME280_pressure;Samples;Min_cycle;Max_cycle;Signal;HPM_P1;HPM_P2
2022/03/01 00:01:50;;;;;;;16.65;7.93;;;6.90;43.70;;;;;;4964203;28;20062;-44
2022/03/01 00:04:17;;;;;;;13.57;7.30;;;6.90;43.70;;;;;;4955694;28;20054;-43
2022/03/01 00:06:45;;;;;;;12.13;7.00;;;6.80;43.70;;;;;;4963021;28;20054;-46
2022/03/01 00:09:13;;;;;;;12.88;6.65;;;6.80;43.80;;;;;;4962927;28;20055;-47
2022/03/01 00:11:40;;;;;;;14.15;7.85;;;6.80;44.00;;;;;;4963538;28;20447;-45
2022/03/01 00:14:09;;;;;;;13.93;7.22;;;6.80;44.10;;;;;;4960565;28;20054;-42
2022/03/01 00:16:37;;;;;;;14.38;7.65;;;6.70;44.10;;;;;;4962716;28;20054;-46
2022/03/01 00:19:05;;;;;;;18.77;8.82;;;6.70;44.10;;;;;;4962499;28;20058;-48
2022/03/01 00:21:33;;;;;;;12.32;7.47;;;6.70;44.20;;;;;;4963993;28;20506;-44
2022/03/01 00:24:00;;;;;;;14.18;7.95;;;6.60;44.20;;;;;;4959692;28;20062;-44
2022/03/01 00:26:28;;;;;;;18.35;8.98;;;6.60;44.30;;;;;;4960332;28;20050;-43
2022/03/01 00:28:55;;;;;;;14.43;8.65;;;6.60;44.30;;;;;;4964110;28;20275;-48
2022/03/01 00:31:24;;;;;;;14.50;8.30;;;6.60;44.30;;;;;;4962922;28;20046;-44
2022/03/01 00:33:52;;;;;;;13.77;8.10;;;6.50;44.40;;;;;;4960420;28;20066;-43
2022/03/01 00:36:20;;;;;;;16.13;8.57;;;6.50;44.40;;;;;;4962141;28;20059;-44
2022/03/01 00:38:47;;;;;;;15.57;8.52;;;6.40;44.50;;;;;;4961072;28;20050;-45
2022/03/01 00:41:15;;;;;;;14.05;8.13;;;6.40;44.50;;;;;;4964176;28;20051;-43
2022/03/01 00:43:42;;;;;;;15.55;8.82;;;6.40;44.60;;;;;;4960744;28;20406;-46
2022/03/01 00:46:10;;;;;;;22.88;9.50;;;6.30;44.70;;;;;;4962217;28;20065;-45
2022/03/01 00:48:38;;;;;;;14.35;8.35;;;6.30;44.80;;;;;;4962765;28;20157;-45
2022/03/01 00:51:06;;;;;;;14.68;7.60;;;6.30;44.90;;;;;;4959383;28;20073;-44
2022/03/01 00:53:34;;;;;;;13.25;8.23;;;6.20;44.90;;;;;;4961568;28;20499;-42
2022/03/01 00:56:04;;;;;;;15.57;8.48;;;6.20;45.00;;;;;;4963925;28;20058;-46
2022/03/01 00:58:32;;;;;;;15.85;8.25;;;6.20;45.10;;;;;;4963027;28;20415;-42
2022/03/01 01:00:59;;;;;;;13.75;7.50;;;6.20;45.10;;;;;;4960871;28;20057;-47
2022/03/01 01:03:27;;;;;;;12.65;7.22;;;6.10;45.10;;;;;;4959624;28;20058;-42
2022/03/01 01:05:56;;;;;;;13.43;7.60;;;6.10;45.20;;;;;;4957924;28;20062;-43
2022/03/01 01:08:23;;;;;;;16.23;9.23;;;6.10;45.20;;;;;;4963821;28;20055;-47
2022/03/01 01:10:51;;;;;;;17.63;8.85;;;6.10;45.30;;;;;;4964466;28;20059;-45
2022/03/01 01:13:19;;;;;;;19.52;9.75;;;6.10;45.30;;;;;;4961362;28;20438;-45
2022/03/01 01:15:47;;;;;;;16.00;9.30;;;6.10;45.30;;;;;;4962453;28;20178;-47
2022/03/01 01:18:14;;;;;;;17.27;8.88;;;6.10;45.30;;;;;;4962168;28;20388;-43
2022/03/01 01:20:42;;;;;;;18.65;9.15;;;6.10;45.40;;;;;;4961069;28;20047;-44
2022/03/01 01:23:13;;;;;;;14.35;8.57;;;6.10;45.50;;;;;;4958189;28;20544;-43
2022/03/01 01:25:41;;;;;;;19.73;9.95;;;6.00;45.50;;;;;;4962486;28;20076;-45
2022/03/01 01:28:11;;;;;;;22.13;9.40;;;6.00;45.40;;;;;;4962160;28;20047;-43
2022/03/01 01:30:39;;;;;;;19.02;9.95;;;6.00;45.40;;;;;;4962077;28;20050;-44
2022/03/01 01:33:06;;;;;;;18.13;9.23;;;6.00;45.40;;;;;;4961786;28;20419;-42
2022/03/01 01:35:36;;;;;;;15.23;8.65;;;6.00;45.40;;;;;;4961573;28;20826;-48
2022/03/01 01:38:05;;;;;;;16.98;9.32;;;6.00;45.40;;;;;;4962184;28;20066;-44
2022/03/01 01:40:35;;;;;;;15.23;8.57;;;6.00;45.40;;;;;;4962817;28;20054;-47
2022/03/01 01:43:05;;;;;;;14.80;8.48;;;6.00;45.40;;;;;;4961992;28;20074;-47
2022/03/01 01:45:33;;;;;;;14.32;8.55;;;6.00;45.40;;;;;;4961925;28;20690;-45
2022/03/01 01:48:02;;;;;;;15.23;7.90;;;6.00;45.50;;;;;;4963502;28;20062;-43
2022/03/01 01:50:35;;;;;;;13.10;7.75;;;6.00;45.50;;;;;;4956226;28;20043;-42
2022/03/01 01:53:04;;;;;;;15.80;8.38;;;6.00;45.50;;;;;;4954183;28;20062;-45
2022/03/01 01:55:33;;;;;;;17.23;8.65;;;6.00;45.40;;;;;;4961240;28;20055;-42
2022/03/01 01:58:00;;;;;;;17.27;8.23;;;6.00;45.30;;;;;;4963345;28;20058;-44
2022/03/01 02:00:29;;;;;;;16.75;7.90;;;6.00;45.30;;;;;;4961652;28;20751;-46
2022/03/01 02:02:56;;;;;;;14.27;8.07;;;6.00;45.20;;;;;;4961403;28;20055;-44
2022/03/01 02:05:24;;;;;;;16.55;8.63;;;6.00;45.20;;;;;;4957461;28;20581;-42
2022/03/01 02:07:52;;;;;;;16.90;8.75;;;6.00;45.30;;;;;;4962440;28;20062;-45
2022/03/01 02:10:20;;;;;;;14.25;8.30;;;6.00;45.20;;;;;;4961688;28;20077;-44
2022/03/01 02:12:49;;;;;;;15.25;8.63;;;6.00;45.30;;;;;;4959537;28;20059;-47
2022/03/01 02:15:17;;;;;;;13.38;8.50;;;6.00;45.30;;;;;;4961289;28;20050;-44
2022/03/01 02:17:45;;;;;;;16.70;8.43;;;6.00;45.30;;;;;;4962388;28;20051;-48
2022/03/01 02:20:16;;;;;;;14.00;7.85;;;6.10;45.30;;;;;;4961331;28;20390;-42
2022/03/01 02:22:44;;;;;;;14.57;7.88;;;6.00;45.20;;;;;;4960410;28;20055;-46
2022/03/01 02:25:12;;;;;;;15.32;8.05;;;6.00;45.30;;;;;;4961267;28;20057;-42
2022/03/01 02:27:40;;;;;;;14.60;7.82;;;6.00;45.30;;;;;;4963592;28;20447;-47
2022/03/01 02:30:10;;;;;;;13.35;7.78;;;6.10;45.30;;;;;;4961786;28;20066;-46
2022/03/01 02:32:39;;;;;;;15.18;7.70;;;6.00;45.30;;;;;;4961175;28;20058;-47
2022/03/01 02:35:08;;;;;;;17.15;8.68;;;6.00;45.30;;;;;;4957406;28;20059;-45
2022/03/01 02:37:38;;;;;;;16.02;8.50;;;6.10;45.30;;;;;;4958736;28;20058;-46
2022/03/01 02:40:07;;;;;;;16.02;7.50;;;6.00;45.20;;;;;;4958647;28;20058;-45
2022/03/01 02:42:34;;;;;;;13.65;8.05;;;6.00;45.20;;;;;;4959970;28;20047;-45
2022/03/01 02:45:02;;;;;;;16.15;8.05;;;6.00;45.10;;;;;;4959745;28;20389;-43
2022/03/01 02:47:29;;;;;;;16.85;8.27;;;6.00;45.10;;;;;;4961066;28;20058;-43
2022/03/01 02:49:57;;;;;;;14.55;7.70;;;6.00;45.20;;;;;;4959319;28;20055;-44
2022/03/01 02:52:24;;;;;;;15.52;8.68;;;6.00;45.10;;;;;;4958011;28;20125;-45
2022/03/01 02:54:53;;;;;;;17.58;8.18;;;6.00;45.10;;;;;;4959785;28;20069;-42
2022/03/01 02:57:21;;;;;;;14.52;7.50;;;6.00;45.10;;;;;;4960963;28;20062;-43
2022/03/01 02:59:49;;;;;;;13.13;7.38;;;6.00;45.20;;;;;;4960843;28;20527;-42
2022/03/01 03:02:16;;;;;;;14.30;7.97;;;6.00;45.20;;;;;;4961018;28;20059;-44
2022/03/01 03:04:44;;;;;;;17.10;8.43;;;6.00;45.20;;;;;;4957445;28;20062;-45
2022/03/01 03:07:12;;;;;;;15.50;7.93;;;6.00;45.20;;;;;;4961168;28;20062;-42
2022/03/01 03:09:40;;;;;;;14.15;8.05;;;6.00;45.10;;;;;;4962026;28;20054;-45
2022/03/01 03:12:09;;;;;;;15.38;7.78;;;6.00;45.20;;;;;;4959461;28;20424;-43
2022/03/01 03:14:37;;;;;;;15.68;8.13;;;6.00;45.10;;;;;;4959375;28;20051;-44
2022/03/01 03:17:05;;;;;;;15.70;8.18;;;6.00;45.20;;;;;;4961251;28;20067;-44
2022/03/01 03:19:33;;;;;;;16.70;7.90;;;6.00;45.20;;;;;;4958582;28;20055;-45
2022/03/01 03:22:02;;;;;;;14.98;8.40;;;6.00;45.20;;;;;;4964764;28;20046;-44
2022/03/01 03:24:30;;;;;;;15.50;8.00;;;6.00;45.20;;;;;;4944617;28;20054;-42
2022/03/01 03:26:58;;;;;;;17.08;8.25;;;6.00;45.20;;;;;;4964688;28;20070;-44
2022/03/01 03:29:27;;;;;;;12.85;7.22;;;5.90;45.20;;;;;;4965348;28;20058;-42
2022/03/01 03:31:57;;;;;;;15.25;8.35;;;6.00;45.20;;;;;;4964002;28;20066;-43
2022/03/01 03:34:25;;;;;;;15.65;7.97;;;6.00;45.20;;;;;;4961621;28;20062;-44
2022/03/01 03:36:53;;;;;;;18.02;9.02;;;6.00;45.20;;;;;;4964314;28;20055;-48
2022/03/01 03:39:22;;;;;;;16.45;8.65;;;5.90;45.20;;;;;;4965211;28;20069;-42
2022/03/01 03:41:49;;;;;;;14.32;8.45;;;5.90;45.20;;;;;;4965451;28;20054;-43
2022/03/01 03:44:17;;;;;;;14.80;8.60;;;5.90;45.30;;;;;;4962124;28;20051;-42
2022/03/01 03:46:46;;;;;;;17.45;8.90;;;5.90;45.20;;;;;;4964764;28;20508;-42
2022/03/01 03:49:13;;;;;;;18.38;9.10;;;5.90;45.30;;;;;;4962744;28;20066;-45
2022/03/01 03:51:41;;;;;;;22.65;8.77;;;5.90;45.30;;;;;;4963827;28;20496;-46
2022/03/01 03:54:09;;;;;;;20.38;9.50;;;5.80;45.30;;;;;;4962254;28;20065;-47
2022/03/01 03:56:37;;;;;;;17.90;8.98;;;5.80;45.30;;;;;;4963602;28;20063;-42
2022/03/01 03:59:07;;;;;;;13.50;8.02;;;5.80;45.30;;;;;;4964102;28;20058;-42
2022/03/01 04:01:36;;;;;;;17.70;8.30;;;5.80;45.40;;;;;;4963195;28;20629;-43
2022/03/01 04:04:05;;;;;;;15.65;8.38;;;5.80;45.40;;;;;;4959235;28;20055;-44
2022/03/01 04:06:33;;;;;;;19.50;9.60;;;5.80;45.40;;;;;;4963491;28;20393;-44
2022/03/01 04:09:00;;;;;;;14.68;8.00;;;5.80;45.40;;;;;;4964849;28;20455;-42
2022/03/01 04:11:28;;;;;;;15.63;8.98;;;5.80;45.40;;;;;;4964677;28;20051;-42
2022/03/01 04:13:56;;;;;;;16.65;9.43;;;5.80;45.40;;;;;;4962475;28;20104;-45
2022/03/01 04:16:23;;;;;;;14.27;8.43;;;5.70;45.30;;;;;;4962408;28;20058;-46
2022/03/01 04:18:51;;;;;;;16.25;7.90;;;5.70;45.40;;;;;;4962983;28;20491;-43
2022/03/01 04:21:20;;;;;;;17.60;8.93;;;5.70;45.40;;;;;;4964485;28;20073;-43
2022/03/01 04:23:48;;;;;;;18.23;9.23;;;5.70;45.40;;;;;;4961331;28;20054;-45
2022/03/01 04:26:16;;;;;;;15.32;8.50;;;5.70;45.40;;;;;;4964349;28;20399;-43
2022/03/01 04:28:44;;;;;;;17.70;9.07;;;5.80;45.60;;;;;;4963529;28;20055;-45
2022/03/01 04:31:12;;;;;;;17.30;8.90;;;5.70;45.50;;;;;;4960115;28;20447;-43
2022/03/01 04:33:39;;;;;;;17.00;9.52;;;5.70;45.40;;;;;;4961094;28;20050;-44
2022/03/01 04:36:07;;;;;;;14.43;8.27;;;5.70;45.40;;;;;;4964187;28;20522;-45
2022/03/01 04:38:37;;;;;;;16.27;8.98;;;5.70;45.50;;;;;;4964652;28;20503;-45
2022/03/01 04:41:04;;;;;;;19.30;8.77;;;5.70;45.50;;;;;;4964267;28;20059;-45
2022/03/01 04:43:32;;;;;;;33.38;15.60;;;5.70;45.40;;;;;;4957000;28;20051;-46
2022/03/01 04:46:01;;;;;;;26.75;13.13;;;5.70;45.40;;;;;;4962623;28;20058;-44
2022/03/01 04:48:28;;;;;;;23.88;11.73;;;5.70;45.40;;;;;;4962368;28;20054;-46
2022/03/01 04:50:56;;;;;;;18.67;9.32;;;5.70;45.40;;;;;;4961177;28;20534;-46
2022/03/01 04:53:24;;;;;;;19.20;9.55;;;5.70;45.50;;;;;;4961173;28;20050;-44
2022/03/01 04:55:53;;;;;;;19.25;8.98;;;5.60;45.40;;;;;;4964158;28;20057;-48
2022/03/01 04:58:20;;;;;;;19.98;10.25;;;5.60;45.40;;;;;;4964265;28;20063;-43
2022/03/01 05:00:48;;;;;;;20.48;9.88;;;5.60;45.40;;;;;;4960122;28;20591;-49
2022/03/01 05:03:15;;;;;;;19.42;9.88;;;5.60;45.30;;;;;;4960283;28;20051;-45
2022/03/01 05:05:43;;;;;;;21.45;9.95;;;5.60;45.50;;;;;;4962086;28;20518;-45
2022/03/01 05:08:10;;;;;;;19.02;9.43;;;5.50;45.50;;;;;;4963363;28;20059;-45
2022/03/01 05:10:38;;;;;;;20.60;9.48;;;5.50;45.40;;;;;;4961995;28;20419;-42
2022/03/01 05:13:07;;;;;;;19.70;9.25;;;5.50;45.40;;;;;;4960383;28;20599;-42
2022/03/01 05:15:34;;;;;;;25.35;11.48;;;5.50;45.40;;;;;;4958275;28;20495;-45
2022/03/01 05:18:02;;;;;;;18.90;9.45;;;5.50;45.40;;;;;;4955580;28;20347;-44
2022/03/01 05:20:29;;;;;;;31.85;14.45;;;5.50;45.40;;;;;;4962205;28;20550;-44
2022/03/01 05:22:57;;;;;;;24.00;11.18;;;5.40;45.50;;;;;;4958559;28;20051;-44
2022/03/01 05:25:25;;;;;;;22.90;10.57;;;5.40;45.50;;;;;;4963069;28;20050;-43
2022/03/01 05:27:53;;;;;;;21.10;10.40;;;5.40;45.50;;;;;;4963297;28;20069;-46
2022/03/01 05:30:23;;;;;;;21.05;10.65;;;5.40;45.60;;;;;;4957476;28;20057;-44
2022/03/01 05:32:51;;;;;;;24.70;10.65;;;5.40;45.60;;;;;;4956473;28;20055;-43
2022/03/01 05:35:21;;;;;;;27.83;10.63;;;5.40;45.70;;;;;;4961313;28;20070;-49
2022/03/01 05:37:52;;;;;;;19.80;10.45;;;5.40;45.60;;;;;;4961299;28;20500;-42
2022/03/01 05:40:20;;;;;;;21.20;10.20;;;5.40;45.60;;;;;;4963103;28;20419;-42
2022/03/01 05:42:48;;;;;;;20.88;10.45;;;5.40;45.60;;;;;;4959866;28;20933;-45
2022/03/01 05:45:15;;;;;;;20.17;10.73;;;5.40;45.60;;;;;;4959875;28;20053;-44
2022/03/01 05:47:45;;;;;;;18.85;9.88;;;5.40;45.60;;;;;;4962198;28;20058;-43
2022/03/01 05:50:14;;;;;;;19.45;10.18;;;5.40;45.60;;;;;;4957246;28;20487;-45
2022/03/01 05:52:42;;;;;;;19.92;9.95;;;5.30;45.50;;;;;;4960204;28;20389;-43
2022/03/01 05:55:11;;;;;;;70.43;26.67;;;5.40;45.50;;;;;;4962609;28;20062;-47
2022/03/01 05:57:38;;;;;;;29.95;13.85;;;5.30;45.60;;;;;;4959730;28;20057;-48
2022/03/01 06:00:09;;;;;;;23.88;10.27;;;5.30;45.60;;;;;;4960190;28;20069;-46
2022/03/01 06:02:36;;;;;;;24.70;11.10;;;5.30;45.60;;;;;;4955609;28;20062;-46
2022/03/01 06:05:06;;;;;;;21.25;10.48;;;5.30;45.50;;;;;;4958662;28;20059;-45
2022/03/01 06:07:33;;;;;;;21.58;10.45;;;5.30;45.50;;;;;;4962949;28;20066;-46
2022/03/01 06:10:01;;;;;;;24.30;10.98;;;5.30;45.60;;;;;;4962017;28;20066;-42
2022/03/01 06:12:28;;;;;;;23.42;10.55;;;5.30;45.60;;;;;;4958744;28;20054;-47
2022/03/01 06:14:56;;;;;;;22.58;10.93;;;5.30;45.60;;;;;;4960789;28;20488;-46
2022/03/01 06:17:23;;;;;;;20.77;10.45;;;5.30;45.60;;;;;;4959765;28;20046;-47
2022/03/01 06:19:51;;;;;;;23.98;9.75;;;5.30;45.60;;;;;;4958958;28;20054;-43
2022/03/01 06:22:21;;;;;;;21.90;10.35;;;5.30;45.70;;;;;;4962417;28;20105;-43
2022/03/01 06:24:49;;;;;;;26.48;10.57;;;5.30;45.60;;;;;;4960585;28;20051;-47
2022/03/01 06:27:16;;;;;;;23.95;11.18;;;5.30;45.60;;;;;;4962864;28;20081;-45
2022/03/01 06:29:44;;;;;;;23.02;11.10;;;5.30;45.60;;;;;;4960846;28;20430;-42
2022/03/01 06:32:11;;;;;;;21.75;11.38;;;5.30;45.60;;;;;;4958466;28;20185;-45
2022/03/01 06:34:39;;;;;;;26.23;11.70;;;5.30;45.60;;;;;;4954587;28;20061;-46
2022/03/01 06:37:12;;;;;;;25.50;11.48;;;5.30;45.60;;;;;;4958122;28;20059;-45
2022/03/01 06:39:42;;;;;;;24.35;11.20;;;5.30;45.50;;;;;;4958421;28;20488;-44
2022/03/01 06:42:11;;;;;;;33.70;11.13;;;5.30;45.70;;;;;;4961610;28;20050;-44
2022/03/01 06:44:41;;;;;;;25.35;12.00;;;5.40;45.80;;;;;;4956422;28;20051;-44
2022/03/01 06:47:09;;;;;;;24.63;10.82;;;5.40;45.80;;;;;;4961817;28;20589;-43
2022/03/01 06:49:37;;;;;;;24.63;11.68;;;5.40;45.70;;;;;;4957470;28;20051;-43
2022/03/01 06:52:06;;;;;;;22.17;11.43;;;5.40;45.70;;;;;;4961379;28;20051;-42
2022/03/01 06:54:33;;;;;;;23.48;11.20;;;5.50;45.70;;;;;;4959011;28;20051;-42
2022/03/01 06:57:03;;;;;;;21.55;11.05;;;5.50;45.60;;;;;;4961086;28;20063;-43
2022/03/01 06:59:31;;;;;;;22.30;11.13;;;5.50;45.60;;;;;;4958633;28;20472;-42
2022/03/01 07:01:59;;;;;;;28.65;11.90;;;5.50;45.50;;;;;;4956477;28;20073;-43
2022/03/01 07:04:27;;;;;;;23.13;11.88;;;5.60;45.50;;;;;;4957647;28;20050;-46
2022/03/01 07:06:54;;;;;;;20.30;10.40;;;5.60;45.50;;;;;;4961344;28;20756;-44
2022/03/01 07:09:22;;;;;;;23.30;11.00;;;5.60;45.60;;;;;;4961690;28;20962;-43
2022/03/01 07:11:50;;;;;;;26.35;12.13;;;5.60;45.40;;;;;;4959782;28;20063;-45
2022/03/01 07:14:20;;;;;;;24.20;12.05;;;5.70;45.50;;;;;;4959958;28;20631;-47
2022/03/01 07:16:47;;;;;;;24.10;11.07;;;5.70;45.50;;;;;;4956821;28;20065;-46
2022/03/01 07:19:15;;;;;;;22.88;11.25;;;5.80;45.50;;;;;;4958347;28;20058;-42
2022/03/01 07:21:42;;;;;;;21.63;10.93;;;5.80;45.50;;;;;;4960264;28;20500;-46
2022/03/01 07:24:10;;;;;;;27.23;11.98;;;5.90;45.50;;;;;;4957478;28;20062;-44
2022/03/01 07:26:37;;;;;;;24.70;11.18;;;5.90;45.30;;;;;;4960125;28;20070;-42
2022/03/01 07:29:05;;;;;;;22.42;11.23;;;5.90;45.20;;;;;;4960683;28;20058;-44
2022/03/01 07:31:34;;;;;;;24.85;11.52;;;6.00;45.30;;;;;;4960132;28;20059;-43
2022/03/01 07:34:02;;;;;;;25.33;11.65;;;6.10;45.30;;;;;;4956638;28;20051;-42
2022/03/01 07:36:29;;;;;;;27.70;11.75;;;6.10;45.10;;;;;;4956727;28;20067;-42
2022/03/01 07:38:57;;;;;;;24.13;11.98;;;6.10;45.20;;;;;;4960212;28;20073;-43
2022/03/01 07:41:24;;;;;;;23.33;11.32;;;6.20;45.20;;;;;;4961199;28;20066;-44
2022/03/01 07:43:52;;;;;;;23.67;11.88;;;6.30;45.20;;;;;;4957842;28;20059;-43
2022/03/01 07:46:19;;;;;;;22.25;10.68;;;6.30;45.20;;;;;;4960338;28;20519;-43
2022/03/01 07:48:48;;;;;;;26.15;12.75;;;6.40;45.20;;;;;;4957269;28;20063;-41
2022/03/01 07:51:16;;;;;;;22.08;12.32;;;6.40;45.50;;;;;;4956728;28;20058;-46
2022/03/01 07:53:43;;;;;;;24.00;11.98;;;6.40;44.80;;;;;;4955763;28;20047;-43
2022/03/01 07:56:11;;;;;;;25.15;11.70;;;6.50;44.90;;;;;;4957807;28;20058;-44
2022/03/01 07:58:38;;;;;;;20.95;11.50;;;6.50;44.90;;;;;;4960133;28;20058;-44
2022/03/01 08:01:06;;;;;;;24.15;11.10;;;6.60;44.70;;;;;;4956283;28;20047;-44
2022/03/01 08:03:34;;;;;;;21.05;11.15;;;6.60;44.60;;;;;;4956190;28;20081;-47
2022/03/01 08:06:03;;;;;;;24.95;11.15;;;6.60;44.70;;;;;;4959723;28;20054;-42
2022/03/01 08:08:30;;;;;;;24.45;11.93;;;6.70;44.70;;;;;;4961681;28;20046;-45
2022/03/01 08:10:58;;;;;;;21.48;10.98;;;6.70;44.60;;;;;;4963085;28;20055;-46
2022/03/01 08:13:26;;;;;;;22.92;12.15;;;6.70;44.60;;;;;;4956942;28;20055;-45
2022/03/01 08:15:54;;;;;;;29.83;12.25;;;6.80;44.60;;;;;;4962640;28;20511;-45
2022/03/01 08:18:21;;;;;;;26.92;12.40;;;6.80;44.60;;;;;;4963693;28;20070;-44
2022/03/01 08:20:49;;;;;;;24.63;11.85;;;6.80;44.60;;;;;;4962683;28;20500;-44
2022/03/01 08:23:18;;;;;;;24.90;11.98;;;6.80;44.60;;;;;;4958080;28;20446;-43
2022/03/01 08:25:45;;;;;;;22.17;11.57;;;6.80;44.60;;;;;;4962383;28;20057;-47
2022/03/01 08:28:14;;;;;;;27.48;12.20;;;6.90;44.50;;;;;;4963921;28;20050;-43
2022/03/01 08:30:41;;;;;;;24.30;11.63;;;6.90;44.60;;;;;;4959262;28;20059;-44
2022/03/01 08:33:09;;;;;;;23.98;11.70;;;6.90;45.10;;;;;;4959479;28;20059;-42
2022/03/01 08:35:36;;;;;;;23.90;11.45;;;6.90;44.40;;;;;;4960566;28;20054;-45
2022/03/01 08:38:05;;;;;;;26.88;12.35;;;6.90;44.60;;;;;;4963485;28;20063;-44
2022/03/01 08:40:37;;;;;;;26.25;12.10;;;6.90;44.20;;;;;;4955077;28;20059;-43
2022/03/01 08:43:05;;;;;;;23.13;11.82;;;6.90;44.10;;;;;;4956114;28;20066;-48
2022/03/01 08:45:33;;;;;;;26.20;12.07;;;6.90;44.20;;;;;;4960793;28;20055;-42
2022/03/01 08:48:01;;;;;;;28.20;11.60;;;7.00;44.10;;;;;;4958024;28;20054;-43
2022/03/01 08:50:29;;;;;;;22.38;11.85;;;7.00;44.30;;;;;;4959228;28;20412;-43
2022/03/01 08:52:56;;;;;;;26.38;12.48;;;7.00;44.30;;;;;;4960396;28;20051;-44
2022/03/01 08:55:24;;;;;;;25.48;11.73;;;7.00;44.20;;;;;;4962607;28;20050;-47
2022/03/01 08:57:53;;;;;;;25.63;12.98;;;7.10;44.50;;;;;;4961903;28;20059;-45
2022/03/01 09:00:21;;;;;;;29.33;12.52;;;7.10;44.50;;;;;;4961606;28;20063;-45
2022/03/01 09:02:48;;;;;;;28.48;12.65;;;7.10;44.40;;;;;;4958538;28;20061;-44
2022/03/01 09:05:16;;;;;;;23.75;12.52;;;7.20;44.30;;;;;;4956807;28;20054;-45
2022/03/01 09:07:44;;;;;;;24.25;12.02;;;7.20;44.20;;;;;;4961701;28;20059;-47
2022/03/01 09:10:12;;;;;;;26.65;11.90;;;7.20;44.20;;;;;;4961821;28;20066;-44
2022/03/01 09:12:40;;;;;;;23.70;12.15;;;7.30;44.40;;;;;;4958950;28;20054;-48
2022/03/01 09:15:10;;;;;;;22.02;12.30;;;7.40;44.60;;;;;;4960379;28;20059;-46
2022/03/01 09:17:37;;;;;;;23.10;11.57;;;7.40;44.60;;;;;;4961226;28;20057;-44
2022/03/01 09:20:05;;;;;;;22.27;11.27;;;7.40;44.40;;;;;;4961132;28;20055;-43
2022/03/01 09:22:33;;;;;;;27.77;12.40;;;7.50;44.50;;;;;;4962700;28;20058;-43
2022/03/01 09:25:02;;;;;;;24.13;12.10;;;7.60;44.50;;;;;;4961075;28;20055;-44
2022/03/01 09:27:29;;;;;;;21.92;11.52;;;7.70;44.40;;;;;;4958935;28;20061;-47
2022/03/01 09:29:57;;;;;;;24.02;11.00;;;7.70;44.10;;;;;;4958113;28;20070;-42
2022/03/01 09:32:26;;;;;;;25.60;11.38;;;7.80;44.20;;;;;;4950471;28;20588;-47
2022/03/01 09:34:55;;;;;;;22.67;11.13;;;7.90;44.30;;;;;;4953949;28;20050;-45
2022/03/01 09:37:23;;;;;;;22.45;11.27;;;8.00;44.50;;;;;;4954219;28;20059;-45
2022/03/01 09:39:51;;;;;;;22.67;11.40;;;8.10;44.40;;;;;;4956163;28;20562;-46
2022/03/01 09:42:19;;;;;;;22.33;11.68;;;8.20;44.50;;;;;;4957536;28;20418;-45
2022/03/01 09:44:47;;;;;;;25.55;11.55;;;8.30;44.20;;;;;;4959117;28;20069;-42
2022/03/01 09:47:14;;;;;;;22.23;10.73;;;8.40;43.90;;;;;;4959613;28;20423;-46
2022/03/01 09:49:43;;;;;;;21.13;10.73;;;8.50;43.80;;;;;;4956918;28;20058;-47
2022/03/01 09:52:11;;;;;;;23.88;10.95;;;8.60;43.80;;;;;;4959155;28;20062;-46
2022/03/01 09:54:38;;;;;;;20.70;10.45;;;8.70;43.80;;;;;;4951238;28;20051;-44
2022/03/01 09:57:06;;;;;;;23.55;11.00;;;8.80;43.80;;;;;;4951612;28;20050;-45
2022/03/01 09:59:35;;;;;;;20.52;10.80;;;8.90;43.70;;;;;;4955487;28;20055;-43
2022/03/01 10:02:03;;;;;;;23.30;11.00;;;9.00;44.10;;;;;;4960302;28;20059;-46
2022/03/01 10:04:30;;;;;;;23.38;10.98;;;9.10;43.60;;;;;;4956742;28;20057;-46
2022/03/01 10:07:03;;;;;;;22.25;11.05;;;9.20;43.40;;;;;;4959715;28;20065;-46
2022/03/01 10:09:30;;;;;;;19.90;10.80;;;9.20;43.00;;;;;;4963036;28;20058;-45
2022/03/01 10:12:05;;;;;;;24.95;11.45;;;9.30;42.90;;;;;;4961469;28;20058;-44
2022/03/01 10:14:34;;;;;;;21.88;10.52;;;9.40;42.90;;;;;;4960551;28;20055;-46
2022/03/01 10:17:12;;;;;;;19.83;10.63;;;9.40;42.60;;;;;;4961334;28;20077;-47
2022/03/01 10:19:39;;;;;;;18.75;10.57;;;9.50;42.20;;;;;;4957796;28;20054;-45
2022/03/01 10:22:08;;;;;;;19.65;10.45;;;9.50;42.80;;;;;;4961186;28;20129;-44
2022/03/01 10:24:36;;;;;;;21.73;10.40;;;9.60;42.00;;;;;;4957978;28;20767;-48
2022/03/01 10:27:05;;;;;;;21.92;11.30;;;9.60;41.90;;;;;;4961923;28;20410;-44
2022/03/01 10:29:33;;;;;;;22.25;10.55;;;9.60;41.60;;;;;;4960213;28;20102;-45
2022/03/01 10:32:12;;;;;;;20.02;10.05;;;9.60;41.60;;;;;;4958427;28;20055;-44
2022/03/01 10:34:39;;;;;;;20.02;10.82;;;9.70;41.60;;;;;;4958225;28;20058;-48
2022/03/01 10:37:14;;;;;;;22.58;10.95;;;9.70;41.90;;;;;;4962031;28;20066;-46
2022/03/01 10:39:42;;;;;;;22.50;11.10;;;9.70;41.90;;;;;;4957076;28;20055;-45
2022/03/01 10:42:09;;;;;;;19.27;10.50;;;9.70;41.80;;;;;;4961395;28;20063;-46
2022/03/01 10:44:37;;;;;;;24.40;11.23;;;9.70;41.70;;;;;;4957412;28;20411;-45
2022/03/01 10:47:05;;;;;;;23.85;10.93;;;9.70;41.70;;;;;;4960868;28;20053;-46
2022/03/01 10:49:35;;;;;;;18.33;9.98;;;9.70;41.60;;;;;;4957492;28;20070;-44
2022/03/01 10:52:07;;;;;;;23.65;11.40;;;9.70;41.40;;;;;;4960802;28;20070;-45
2022/03/01 10:54:37;;;;;;;19.83;11.13;;;9.70;41.40;;;;;;4960748;28;20062;-45
2022/03/01 10:57:07;;;;;;;23.00;10.82;;;9.70;41.20;;;;;;4961732;28;20113;-45
2022/03/01 10:59:36;;;;;;;20.70;11.80;;;9.70;41.40;;;;;;4958473;28;20051;-48
2022/03/01 11:02:05;;;;;;;21.08;10.00;;;9.60;41.30;;;;;;4960486;28;20058;-47
2022/03/01 11:04:33;;;;;;;21.30;10.60;;;9.70;41.60;;;;;;4958995;28;20963;-44
2022/03/01 11:07:04;;;;;;;22.48;10.68;;;9.70;41.70;;;;;;4959654;28;20059;-43
2022/03/01 11:09:33;;;;;;;22.40;11.75;;;9.70;41.50;;;;;;4962108;28;20069;-44
2022/03/01 11:12:07;;;;;;;25.23;11.00;;;9.70;41.40;;;;;;4960170;28;20401;-47
2022/03/01 11:14:40;;;;;;;22.83;10.98;;;9.70;41.20;;;;;;4951593;28;20051;-45
2022/03/01 11:17:19;;;;;;;21.95;10.00;;;9.70;41.30;;;;;;4950673;28;20058;-43
2022/03/01 11:19:55;;;;;;;20.60;10.35;;;9.70;41.20;;;;;;4948288;28;20058;-42
2022/03/01 11:25:47;;;;;;;24.80;10.55;;;9.80;41.10;;;;;;4969565;28;20045;-47
2022/03/01 11:28:18;;;;;;;17.60;9.77;;;9.80;41.40;;;;;;4952756;28;20058;-47
2022/03/01 11:30:51;;;;;;;23.10;10.65;;;9.90;41.30;;;;;;4952575;28;20051;-42
2022/03/01 11:33:26;;;;;;;19.60;9.40;;;9.90;41.50;;;;;;4952421;28;20055;-47
2022/03/01 11:35:56;;;;;;;21.85;9.90;;;9.90;41.20;;;;;;4943798;28;20067;-47
2022/03/01 11:38:28;;;;;;;20.10;9.85;;;10.00;41.40;;;;;;4952068;28;20550;-43
2022/03/01 11:41:09;;;;;;;17.27;9.35;;;10.00;41.20;;;;;;4957100;28;21033;-42
2022/03/01 11:43:40;;;;;;;20.75;9.75;;;10.10;40.60;;;;;;4956460;28;20055;-46
2022/03/01 11:46:17;;;;;;;18.63;8.75;;;10.20;40.70;;;;;;4961416;28;20055;-45
2022/03/01 11:48:47;;;;;;;19.55;8.88;;;10.20;39.90;;;;;;4955078;28;20050;-45
2022/03/01 11:51:15;;;;;;;19.75;9.38;;;10.30;40.20;;;;;;4958973;28;20062;-42
2022/03/01 11:53:45;;;;;;;17.58;8.93;;;10.40;40.00;;;;;;4955729;28;20378;-45
2022/03/01 11:56:14;;;;;;;15.38;8.45;;;10.40;40.30;;;;;;4957583;28;20366;-45
2022/03/01 11:58:49;;;;;;;19.35;9.77;;;10.50;40.40;;;;;;4963352;28;20050;-48
2022/03/01 12:01:22;;;;;;;18.27;9.77;;;10.60;40.10;;;;;;4963255;28;20062;-44
2022/03/01 12:03:52;;;;;;;16.92;8.45;;;10.60;39.40;;;;;;4956428;28;20065;-46
2022/03/01 12:06:22;;;;;;;27.17;10.32;;;10.70;39.50;;;;;;4963396;28;20514;-45
2022/03/01 12:08:57;;;;;;;17.42;9.65;;;10.70;39.30;;;;;;4964264;28;20062;-44
2022/03/01 12:11:37;;;;;;;18.75;9.45;;;10.80;39.20;;;;;;4964200;28;20061;-42
2022/03/01 12:14:09;;;;;;;17.85;9.48;;;10.80;39.40;;;;;;4962908;28;20066;-44
2022/03/01 12:16:37;;;;;;;18.83;9.25;;;10.90;39.20;;;;;;4962022;28;20420;-44
2022/03/01 12:19:08;;;;;;;23.17;9.85;;;10.90;39.10;;;;;;4963126;28;20065;-45
2022/03/01 12:21:36;;;;;;;19.58;9.90;;;11.00;38.80;;;;;;4963744;28;20070;-46
2022/03/01 12:24:05;;;;;;;19.63;10.18;;;11.00;38.70;;;;;;4963331;28;20392;-42
2022/03/01 12:26:42;;;;;;;19.25;10.00;;;11.00;38.70;;;;;;4962459;28;20058;-44
2022/03/01 12:29:12;;;;;;;20.67;9.77;;;11.10;39.10;;;;;;4962781;28;20074;-45
2022/03/01 12:31:40;;;;;;;22.15;9.95;;;11.20;38.90;;;;;;4961170;28;20062;-43
2022/03/01 12:34:09;;;;;;;18.30;9.75;;;11.20;39.40;;;;;;4961236;28;20074;-47
2022/03/01 12:36:39;;;;;;;24.55;11.13;;;11.20;39.00;;;;;;4962466;28;20058;-49
2022/03/01 12:39:08;;;;;;;24.27;10.57;;;11.30;38.50;;;;;;4963633;28;20054;-43
2022/03/01 12:41:36;;;;;;;20.15;10.15;;;11.30;38.60;;;;;;4962847;28;20050;-43
2022/03/01 12:44:06;;;;;;;19.50;10.20;;;11.30;38.40;;;;;;4962845;28;20058;-42
2022/03/01 12:46:36;;;;;;;23.45;10.80;;;11.40;38.20;;;;;;4962053;28;20529;-43
2022/03/01 12:49:06;;;;;;;16.55;9.85;;;11.40;38.60;;;;;;4957923;28;20156;-44
2022/03/01 12:51:34;;;;;;;21.15;10.63;;;11.40;38.50;;;;;;4961300;28;20051;-42